sensor_id;sensor_type;location;lat;lon;timestamp;P1;durP1;ratioP1;P2;durP2;ratioP2
1847;SDS011;924;52.448;13.356;2023-04-24T00:00:49;6.43;;;5.83;;
1847;SDS011;924;52.448;13.356;2023-04-24T00:03:15;6.33;;;5.27;;
1847;SDS011;924;52.448;13.356;2023-04-24T00:05:41;7.37;;;6.67;;
1847;SDS011;924;52.448;13.356;2023-04-24T00:08:06;6.70;;;5.80;;
1847;SDS011;924;52.448;13.356;2023-04-24T00:10:32;7.33;;;6.83;;
1847;SDS011;924;52.448;13.356;2023-04-24T00:12:57;7.83;;;7.17;;
1847;SDS011;924;52.448;13.356;2023-04-24T00:15:22;6.07;;;5.47;;
1847;SDS011;924;52.448;13.356;2023-04-24T00:17:47;6.33;;;5.77;;
1847;SDS011;924;52.448;13.356;2023-04-24T00:20:13;7.27;;;6.57;;
1847;SDS011;924;52.448;13.356;2023-04-24T00:22:39;6.30;;;5.40;;
1847;SDS011;924;52.448;13.356;2023-04-24T00:25:05;6.23;;;5.73;;
1847;SDS011;924;52.448;13.356;2023-04-24T00:27:30;6.77;;;6.17;;
1847;SDS011;924;52.448;13.356;2023-04-24T00:29:56;6.73;;;6.13;;
1847;SDS011;924;52.448;13.356;2023-04-24T00:32:21;7.30;;;6.60;;
1847;SDS011;924;52.448;13.356;2023-04-24T00:34:46;6.20;;;5.60;;
1847;SDS011;924;52.448;13.356;2023-04-24T00:37:11;7.07;;;6.37;;
1847;SDS011;924;52.448;13.356;2023-04-24T00:39:37;7.33;;;6.73;;
1847;SDS011;924;52.448;13.356;2023-04-24T00:42:02;7.03;;;6.33;;
1847;SDS011;924;52.448;13.356;2023-04-24T00:44:27;6.77;;;6.17;;
1847;SDS011;924;52.448;13.356;2023-04-24T00:46:52;6.90;;;6.30;;
1847;SDS011;924;52.448;13.356;2023-04-24T00:49:22;7.10;;;6.40;;
1847;SDS011;924;52.448;13.356;2023-04-24T00:51:47;6.03;;;5.53;;
1847;SDS011;924;52.448;13.356;2023-04-24T00:54:14;6.80;;;5.77;;
1847;SDS011;924;52.448;13.356;2023-04-24T00:56:40;6.43;;;5.80;;
1847;SDS011;924;52.448;13.356;2023-04-24T00:59:05;7.10;;;6.40;;
1847;SDS011;924;52.448;13.356;2023-04-24T01:01:31;5.90;;;5.40;;
1847;SDS011;924;52.448;13.356;2023-04-24T01:03:57;7.60;;;7.00;;
1847;SDS011;924;52.448;13.356;2023-04-24T01:06:22;6.67;;;6.17;;
1847;SDS011;924;52.448;13.356;2023-04-24T01:08:48;7.90;;;7.10;;
1847;SDS011;924;52.448;13.356;2023-04-24T01:11:13;6.77;;;6.17;;
1847;SDS011;924;52.448;13.356;2023-04-24T01:13:39;7.73;;;7.10;;
1847;SDS011;924;52.448;13.356;2023-04-24T01:16:04;7.90;;;7.13;;
1847;SDS011;924;52.448;13.356;2023-04-24T01:18:29;7.70;;;7.00;;
1847;SDS011;924;52.448;13.356;2023-04-24T01:20:58;8.00;;;7.00;;
1847;SDS011;924;52.448;13.356;2023-04-24T01:23:24;7.10;;;6.40;;
1847;SDS011;924;52.448;13.356;2023-04-24T01:25:49;7.17;;;6.43;;
1847;SDS011;924;52.448;13.356;2023-04-24T01:28:15;6.90;;;6.20;;
1847;SDS011;924;52.448;13.356;2023-04-24T01:30:40;6.40;;;5.90;;
1847;SDS011;924;52.448;13.356;2023-04-24T01:33:06;7.50;;;6.70;;
1847;SDS011;924;52.448;13.356;2023-04-24T01:35:31;7.40;;;6.70;;
1847;SDS011;924;52.448;13.356;2023-04-24T01:37:56;8.40;;;7.60;;
1847;SDS011;924;52.448;13.356;2023-04-24T01:40:22;7.60;;;6.60;;
1847;SDS011;924;52.448;13.356;2023-04-24T01:42:47;8.17;;;7.47;;
1847;SDS011;924;52.448;13.356;2023-04-24T01:45:12;8.30;;;7.57;;
1847;SDS011;924;52.448;13.356;2023-04-24T01:47:38;8.37;;;7.43;;
1847;SDS011;924;52.448;13.356;2023-04-24T01:50:03;8.47;;;7.77;;
1847;SDS011;924;52.448;13.356;2023-04-24T01:52:29;8.33;;;7.53;;
1847;SDS011;924;52.448;13.356;2023-04-24T01:54:56;9.60;;;7.10;;
1847;SDS011;924;52.448;13.356;2023-04-24T01:57:21;9.60;;;8.70;;
1847;SDS011;924;52.448;13.356;2023-04-24T01:59:47;7.80;;;7.00;;
1847;SDS011;924;52.448;13.356;2023-04-24T02:02:12;8.57;;;7.87;;
1847;SDS011;924;52.448;13.356;2023-04-24T02:04:37;8.17;;;7.47;;
1847;SDS011;924;52.448;13.356;2023-04-24T02:07:02;9.07;;;8.27;;
1847;SDS011;924;52.448;13.356;2023-04-24T02:09:28;9.33;;;8.43;;
1847;SDS011;924;52.448;13.356;2023-04-24T02:11:53;8.37;;;7.67;;
1847;SDS011;924;52.448;13.356;2023-04-24T02:14:18;10.23;;;9.00;;
1847;SDS011;924;52.448;13.356;2023-04-24T02:16:43;8.53;;;7.83;;
1847;SDS011;924;52.448;13.356;2023-04-24T02:19:09;9.00;;;8.20;;
1847;SDS011;924;52.448;13.356;2023-04-24T02:21:35;7.67;;;7.00;;
1847;SDS011;924;52.448;13.356;2023-04-24T02:24:00;8.63;;;7.83;;
1847;SDS011;924;52.448;13.356;2023-04-24T02:26:25;9.77;;;8.80;;
1847;SDS011;924;52.448;13.356;2023-04-24T02:28:51;11.03;;;9.40;;
1847;SDS011;924;52.448;13.356;2023-04-24T02:31:16;10.27;;;9.37;;
1847;SDS011;924;52.448;13.356;2023-04-24T02:33:41;10.47;;;9.43;;
1847;SDS011;924;52.448;13.356;2023-04-24T02:36:06;10.97;;;9.97;;
1847;SDS011;924;52.448;13.356;2023-04-24T02:38:32;10.20;;;9.20;;
1847;SDS011;924;52.448;13.356;2023-04-24T02:40:57;9.27;;;8.47;;
1847;SDS011;924;52.448;13.356;2023-04-24T02:43:22;10.20;;;8.80;;
1847;SDS011;924;52.448;13.356;2023-04-24T02:45:48;9.37;;;8.57;;
1847;SDS011;924;52.448;13.356;2023-04-24T02:48:13;9.20;;;8.37;;
1847;SDS011;924;52.448;13.356;2023-04-24T02:50:39;9.57;;;8.50;;
1847;SDS011;924;52.448;13.356;2023-04-24T02:53:04;9.33;;;8.43;;
1847;SDS011;924;52.448;13.356;2023-04-24T02:55:29;9.40;;;8.50;;
1847;SDS011;924;52.448;13.356;2023-04-24T02:57:55;7.70;;;7.10;;
1847;SDS011;924;52.448;13.356;2023-04-24T03:00:20;8.83;;;8.13;;
1847;SDS011;924;52.448;13.356;2023-04-24T03:02:45;8.10;;;7.30;;
1847;SDS011;924;52.448;13.356;2023-04-24T03:05:11;9.70;;;8.80;;
1847;SDS011;924;52.448;13.356;2023-04-24T03:07:37;8.40;;;7.60;;
1847;SDS011;924;52.448;13.356;2023-04-24T03:10:02;10.90;;;8.13;;
1847;SDS011;924;52.448;13.356;2023-04-24T03:12:27;8.70;;;7.80;;
1847;SDS011;924;52.448;13.356;2023-04-24T03:14:53;7.93;;;7.13;;
1847;SDS011;924;52.448;13.356;2023-04-24T03:17:18;7.50;;;6.90;;
1847;SDS011;924;52.448;13.356;2023-04-24T03:19:43;7.77;;;7.07;;
1847;SDS011;924;52.448;13.356;2023-04-24T03:22:08;8.40;;;7.70;;
1847;SDS011;924;52.448;13.356;2023-04-24T03:24:34;8.27;;;7.50;;
1847;SDS011;924;52.448;13.356;2023-04-24T03:26:59;8.77;;;7.93;;
1847;SDS011;924;52.448;13.356;2023-04-24T03:29:25;7.77;;;7.07;;
1847;SDS011;924;52.448;13.356;2023-04-24T03:31:50;7.77;;;6.97;;
1847;SDS011;924;52.448;13.356;2023-04-24T03:34:15;8.43;;;7.73;;
1847;SDS011;924;52.448;13.356;2023-04-24T03:36:40;7.70;;;7.10;;
1847;SDS011;924;52.448;13.356;2023-04-24T03:39:06;8.03;;;7.23;;
1847;SDS011;924;52.448;13.356;2023-04-24T03:41:31;8.50;;;7.43;;
1847;SDS011;924;52.448;13.356;2023-04-24T03:43:56;8.30;;;7.57;;
1847;SDS011;924;52.448;13.356;2023-04-24T03:46:22;7.67;;;6.97;;
1847;SDS011;924;52.448;13.356;2023-04-24T03:48:47;8.90;;;7.23;;
1847;SDS011;924;52.448;13.356;2023-04-24T03:51:12;9.27;;;8.47;;
1847;SDS011;924;52.448;13.356;2023-04-24T03:53:37;8.03;;;7.33;;
1847;SDS011;924;52.448;13.356;2023-04-24T03:56:02;8.17;;;7.40;;
1847;SDS011;924;52.448;13.356;2023-04-24T03:58:28;7.97;;;7.27;;
1847;SDS011;924;52.448;13.356;2023-04-24T04:00:53;7.73;;;7.00;;
1847;SDS011;924;52.448;13.356;2023-04-24T04:03:18;7.67;;;7.00;;
1847;SDS011;924;52.448;13.356;2023-04-24T04:05:43;8.47;;;7.70;;
1847;SDS011;924;52.448;13.356;2023-04-24T04:08:09;7.50;;;6.87;;
1847;SDS011;924;52.448;13.356;2023-04-24T04:10:34;8.10;;;7.07;;
1847;SDS011;924;52.448;13.356;2023-04-24T04:12:59;8.07;;;7.27;;
1847;SDS011;924;52.448;13.356;2023-04-24T04:15:25;8.73;;;7.60;;
1847;SDS011;924;52.448;13.356;2023-04-24T04:17:50;7.90;;;7.20;;
1847;SDS011;924;52.448;13.356;2023-04-24T04:20:15;7.43;;;6.70;;
1847;SDS011;924;52.448;13.356;2023-04-24T04:22:40;8.70;;;7.80;;
1847;SDS011;924;52.448;13.356;2023-04-24T04:25:06;7.40;;;6.67;;
1847;SDS011;924;52.448;13.356;2023-04-24T04:27:31;7.73;;;6.60;;
1847;SDS011;924;52.448;13.356;2023-04-24T04:30:00;7.97;;;7.27;;
1847;SDS011;924;52.448;13.356;2023-04-24T04:32:34;8.83;;;7.50;;
1847;SDS011;924;52.448;13.356;2023-04-24T04:35:03;8.43;;;7.33;;
1847;SDS011;924;52.448;13.356;2023-04-24T04:37:28;8.07;;;6.80;;
1847;SDS011;924;52.448;13.356;2023-04-24T04:39:54;8.33;;;7.53;;
1847;SDS011;924;52.448;13.356;2023-04-24T04:42:19;6.90;;;6.20;;
1847;SDS011;924;52.448;13.356;2023-04-24T04:44:45;6.67;;;6.07;;
1847;SDS011;924;52.448;13.356;2023-04-24T04:47:10;7.80;;;6.87;;
1847;SDS011;924;52.448;13.356;2023-04-24T04:49:35;6.53;;;5.90;;
1847;SDS011;924;52.448;13.356;2023-04-24T04:52:01;6.23;;;5.67;;
1847;SDS011;924;52.448;13.356;2023-04-24T04:54:26;5.90;;;5.40;;
1847;SDS011;924;52.448;13.356;2023-04-24T04:56:52;9.10;;;6.30;;
1847;SDS011;924;52.448;13.356;2023-04-24T04:59:18;6.00;;;5.43;;
1847;SDS011;924;52.448;13.356;2023-04-24T05:01:43;6.87;;;6.23;;
1847;SDS011;924;52.448;13.356;2023-04-24T05:04:08;7.00;;;5.87;;
1847;SDS011;924;52.448;13.356;2023-04-24T05:06:33;6.40;;;5.80;;
1847;SDS011;924;52.448;13.356;2023-04-24T05:08:59;6.37;;;5.77;;
1847;SDS011;924;52.448;13.356;2023-04-24T05:11:24;6.00;;;5.40;;
1847;SDS011;924;52.448;13.356;2023-04-24T05:13:49;5.80;;;5.30;;
1847;SDS011;924;52.448;13.356;2023-04-24T05:16:14;7.90;;;6.40;;
1847;SDS011;924;52.448;13.356;2023-04-24T05:18:40;6.30;;;5.70;;
1847;SDS011;924;52.448;13.356;2023-04-24T05:21:05;6.10;;;4.50;;
1847;SDS011;924;52.448;13.356;2023-04-24T05:23:31;7.20;;;4.67;;
1847;SDS011;924;52.448;13.356;2023-04-24T05:25:56;4.60;;;4.20;;
1847;SDS011;924;52.448;13.356;2023-04-24T05:28:21;3.93;;;3.63;;
1847;SDS011;924;52.448;13.356;2023-04-24T05:30:46;4.17;;;3.87;;
1847;SDS011;924;52.448;13.356;2023-04-24T05:33:11;4.17;;;3.87;;
1847;SDS011;924;52.448;13.356;2023-04-24T05:35:39;4.43;;;4.03;;
1847;SDS011;924;52.448;13.356;2023-04-24T05:38:05;4.13;;;3.70;;
1847;SDS011;924;52.448;13.356;2023-04-24T05:40:30;4.30;;;3.90;;
1847;SDS011;924;52.448;13.356;2023-04-24T05:42:55;6.40;;;3.97;;
1847;SDS011;924;52.448;13.356;2023-04-24T05:45:20;4.30;;;3.27;;
1847;SDS011;924;52.448;13.356;2023-04-24T05:47:45;3.73;;;3.43;;
1847;SDS011;924;52.448;13.356;2023-04-24T05:50:11;4.37;;;3.10;;
1847;SDS011;924;52.448;13.356;2023-04-24T05:52:36;4.17;;;3.17;;
1847;SDS011;924;52.448;13.356;2023-04-24T05:55:01;2.97;;;2.70;;
1847;SDS011;924;52.448;13.356;2023-04-24T05:57:27;3.53;;;3.23;;
1847;SDS011;924;52.448;13.356;2023-04-24T05:59:52;2.93;;;2.67;;
1847;SDS011;924;52.448;13.356;2023-04-24T06:02:17;3.17;;;2.87;;
1847;SDS011;924;52.448;13.356;2023-04-24T06:04:42;3.20;;;2.83;;
1847;SDS011;924;52.448;13.356;2023-04-24T06:07:09;2.67;;;2.00;;
1847;SDS011;924;52.448;13.356;2023-04-24T06:09:34;5.70;;;2.77;;
1847;SDS011;924;52.448;13.356;2023-04-24T06:12:00;2.60;;;2.40;;
1847;SDS011;924;52.448;13.356;2023-04-24T06:14:25;2.57;;;2.37;;
1847;SDS011;924;52.448;13.356;2023-04-24T06:16:50;3.40;;;2.90;;
1847;SDS011;924;52.448;13.356;2023-04-24T06:19:16;2.97;;;2.53;;
1847;SDS011;924;52.448;13.356;2023-04-24T06:21:41;3.93;;;2.30;;
1847;SDS011;924;52.448;13.356;2023-04-24T06:24:06;3.03;;;2.43;;
1847;SDS011;924;52.448;13.356;2023-04-24T06:26:31;2.20;;;1.77;;
1847;SDS011;924;52.448;13.356;2023-04-24T06:28:57;2.77;;;2.20;;
1847;SDS011;924;52.448;13.356;2023-04-24T06:31:24;2.67;;;2.47;;
1847;SDS011;924;52.448;13.356;2023-04-24T06:33:49;1.93;;;1.77;;
1847;SDS011;924;52.448;13.356;2023-04-24T06:36:14;2.53;;;2.10;;
1847;SDS011;924;52.448;13.356;2023-04-24T06:38:40;2.63;;;2.20;;
1847;SDS011;924;52.448;13.356;2023-04-24T06:41:05;2.20;;;2.00;;
1847;SDS011;924;52.448;13.356;2023-04-24T06:43:31;2.00;;;1.80;;
1847;SDS011;924;52.448;13.356;2023-04-24T06:45:57;2.40;;;1.67;;
1847;SDS011;924;52.448;13.356;2023-04-24T06:48:22;2.10;;;1.70;;
1847;SDS011;924;52.448;13.356;2023-04-24T06:50:48;3.07;;;1.80;;
1847;SDS011;924;52.448;13.356;2023-04-24T06:53:13;1.77;;;1.50;;
1847;SDS011;924;52.448;13.356;2023-04-24T06:55:39;2.50;;;1.50;;
1847;SDS011;924;52.448;13.356;2023-04-24T06:58:05;1.90;;;1.70;;
1847;SDS011;924;52.448;13.356;2023-04-24T07:00:31;2.00;;;1.80;;
1847;SDS011;924;52.448;13.356;2023-04-24T07:02:56;1.63;;;1.47;;
1847;SDS011;924;52.448;13.356;2023-04-24T07:05:22;2.70;;;1.77;;
1847;SDS011;924;52.448;13.356;2023-04-24T07:07:48;2.67;;;1.97;;
1847;SDS011;924;52.448;13.356;2023-04-24T07:10:14;2.07;;;1.77;;
1847;SDS011;924;52.448;13.356;2023-04-24T07:12:39;2.40;;;1.40;;
1847;SDS011;924;52.448;13.356;2023-04-24T07:15:05;1.40;;;1.27;;
1847;SDS011;924;52.448;13.356;2023-04-24T07:17:31;1.63;;;1.40;;
1847;SDS011;924;52.448;13.356;2023-04-24T07:19:56;1.60;;;1.50;;
1847;SDS011;924;52.448;13.356;2023-04-24T07:22:21;4.80;;;1.63;;
1847;SDS011;924;52.448;13.356;2023-04-24T07:24:46;1.50;;;1.40;;
1847;SDS011;924;52.448;13.356;2023-04-24T07:27:12;3.20;;;1.43;;
1847;SDS011;924;52.448;13.356;2023-04-24T07:29:37;1.87;;;1.40;;
1847;SDS011;924;52.448;13.356;2023-04-24T07:32:03;1.90;;;1.53;;
1847;SDS011;924;52.448;13.356;2023-04-24T07:34:28;1.93;;;1.40;;
1847;SDS011;924;52.448;13.356;2023-04-24T07:36:54;1.83;;;1.33;;
1847;SDS011;924;52.448;13.356;2023-04-24T07:39:19;3.20;;;1.73;;
1847;SDS011;924;52.448;13.356;2023-04-24T07:41:44;2.10;;;1.50;;
1847;SDS011;924;52.448;13.356;2023-04-24T07:44:10;3.93;;;1.73;;
1847;SDS011;924;52.448;13.356;2023-04-24T07:46:35;1.50;;;1.27;;
1847;SDS011;924;52.448;13.356;2023-04-24T07:49:00;1.63;;;1.43;;
1847;SDS011;924;52.448;13.356;2023-04-24T07:51:26;1.70;;;1.37;;
1847;SDS011;924;52.448;13.356;2023-04-24T07:53:54;3.20;;;2.63;;
1847;SDS011;924;52.448;13.356;2023-04-24T07:56:22;4.80;;;1.50;;
1847;SDS011;924;52.448;13.356;2023-04-24T07:58:47;2.40;;;1.30;;
1847;SDS011;924;52.448;13.356;2023-04-24T08:01:12;1.10;;;1.00;;
1847;SDS011;924;52.448;13.356;2023-04-24T08:03:39;1.13;;;1.03;;
1847;SDS011;924;52.448;13.356;2023-04-24T08:06:04;2.00;;;1.10;;
1847;SDS011;924;52.448;13.356;2023-04-24T08:08:29;1.60;;;1.40;;
1847;SDS011;924;52.448;13.356;2023-04-24T08:10:55;4.10;;;1.20;;
1847;SDS011;924;52.448;13.356;2023-04-24T08:13:20;3.10;;;1.10;;
1847;SDS011;924;52.448;13.356;2023-04-24T08:15:45;2.00;;;1.17;;
1847;SDS011;924;52.448;13.356;2023-04-24T08:18:11;1.60;;;1.07;;
1847;SDS011;924;52.448;13.356;2023-04-24T08:20:37;1.23;;;1.07;;
1847;SDS011;924;52.448;13.356;2023-04-24T08:23:02;1.40;;;0.90;;
1847;SDS011;924;52.448;13.356;2023-04-24T08:25:27;3.20;;;0.90;;
1847;SDS011;924;52.448;13.356;2023-04-24T08:27:53;2.30;;;1.20;;
1847;SDS011;924;52.448;13.356;2023-04-24T08:30:18;1.00;;;0.90;;
1847;SDS011;924;52.448;13.356;2023-04-24T08:32:43;1.30;;;1.20;;
1847;SDS011;924;52.448;13.356;2023-04-24T08:35:09;2.27;;;1.00;;
1847;SDS011;924;52.448;13.356;2023-04-24T08:37:34;1.70;;;0.83;;
1847;SDS011;924;52.448;13.356;2023-04-24T08:40:00;2.20;;;1.30;;
1847;SDS011;924;52.448;13.356;2023-04-24T08:42:26;1.27;;;1.17;;
1847;SDS011;924;52.448;13.356;2023-04-24T08:44:53;2.53;;;1.40;;
1847;SDS011;924;52.448;13.356;2023-04-24T08:47:19;1.67;;;1.20;;
1847;SDS011;924;52.448;13.356;2023-04-24T08:49:45;1.57;;;1.17;;
1847;SDS011;924;52.448;13.356;2023-04-24T08:52:12;4.20;;;1.70;;
1847;SDS011;924;52.448;13.356;2023-04-24T08:54:38;3.00;;;1.70;;
1847;SDS011;924;52.448;13.356;2023-04-24T08:57:05;1.93;;;1.20;;
1847;SDS011;924;52.448;13.356;2023-04-24T08:59:32;1.30;;;1.20;;
1847;SDS011;924;52.448;13.356;2023-04-24T09:01:59;4.00;;;1.30;;
1847;SDS011;924;52.448;13.356;2023-04-24T09:04:24;1.47;;;0.90;;
1847;SDS011;924;52.448;13.356;2023-04-24T09:06:57;1.50;;;1.40;;
1847;SDS011;924;52.448;13.356;2023-04-24T09:09:23;2.30;;;1.37;;
1847;SDS011;924;52.448;13.356;2023-04-24T09:11:49;4.20;;;1.20;;
1847;SDS011;924;52.448;13.356;2023-04-24T09:14:14;2.67;;;1.33;;
1847;SDS011;924;52.448;13.356;2023-04-24T09:16:40;1.17;;;1.07;;
1847;SDS011;924;52.448;13.356;2023-04-24T09:19:05;2.00;;;1.37;;
1847;SDS011;924;52.448;13.356;2023-04-24T09:21:34;1.63;;;1.50;;
1847;SDS011;924;52.448;13.356;2023-04-24T09:24:00;1.60;;;1.37;;
1847;SDS011;924;52.448;13.356;2023-04-24T09:26:25;3.00;;;1.27;;
1847;SDS011;924;52.448;13.356;2023-04-24T09:28:51;1.50;;;1.33;;
1847;SDS011;924;52.448;13.356;2023-04-24T09:31:18;2.37;;;1.60;;
1847;SDS011;924;52.448;13.356;2023-04-24T09:34:00;1.47;;;1.17;;
1847;SDS011;924;52.448;13.356;2023-04-24T09:36:29;1.30;;;1.10;;
1847;SDS011;924;52.448;13.356;2023-04-24T09:38:58;1.57;;;1.47;;
1847;SDS011;924;52.448;13.356;2023-04-24T09:41:23;1.73;;;1.30;;
1847;SDS011;924;52.448;13.356;2023-04-24T09:43:48;1.67;;;1.00;;
1847;SDS011;924;52.448;13.356;2023-04-24T09:46:14;1.90;;;1.20;;
1847;SDS011;924;52.448;13.356;2023-04-24T09:48:39;1.13;;;0.90;;
1847;SDS011;924;52.448;13.356;2023-04-24T09:51:05;1.40;;;1.30;;
1847;SDS011;924;52.448;13.356;2023-04-24T09:53:36;3.30;;;2.00;;
1847;SDS011;924;52.448;13.356;2023-04-24T09:56:08;6.40;;;1.50;;
1847;SDS011;924;52.448;13.356;2023-04-24T09:58:34;1.33;;;1.13;;
1847;SDS011;924;52.448;13.356;2023-04-24T10:01:00;1.43;;;1.33;;
1847;SDS011;924;52.448;13.356;2023-04-24T10:03:30;1.70;;;1.20;;
1847;SDS011;924;52.448;13.356;2023-04-24T10:05:58;1.40;;;1.20;;
1847;SDS011;924;52.448;13.356;2023-04-24T10:08:24;2.47;;;1.27;;
1847;SDS011;924;52.448;13.356;2023-04-24T10:10:50;2.57;;;1.10;;
1847;SDS011;924;52.448;13.356;2023-04-24T10:13:15;1.73;;;1.23;;
1847;SDS011;924;52.448;13.356;2023-04-24T10:15:40;2.77;;;1.53;;
1847;SDS011;924;52.448;13.356;2023-04-24T10:18:06;1.47;;;1.37;;
1847;SDS011;924;52.448;13.356;2023-04-24T10:20:34;1.40;;;1.20;;
1847;SDS011;924;52.448;13.356;2023-04-24T10:23:00;1.20;;;1.10;;
1847;SDS011;924;52.448;13.356;2023-04-24T10:25:26;1.63;;;1.07;;
1847;SDS011;924;52.448;13.356;2023-04-24T10:27:52;1.67;;;1.50;;
1847;SDS011;924;52.448;13.356;2023-04-24T10:30:19;1.30;;;1.10;;
1847;SDS011;924;52.448;13.356;2023-04-24T10:32:44;2.37;;;1.43;;
1847;SDS011;924;52.448;13.356;2023-04-24T10:35:11;3.20;;;1.40;;
1847;SDS011;924;52.448;13.356;2023-04-24T10:37:37;1.23;;;1.13;;
1847;SDS011;924;52.448;13.356;2023-04-24T10:40:04;3.30;;;1.20;;
1847;SDS011;924;52.448;13.356;2023-04-24T10:42:30;2.20;;;1.50;;
1847;SDS011;924;52.448;13.356;2023-04-24T10:44:55;2.20;;;1.23;;
1847;SDS011;924;52.448;13.356;2023-04-24T10:47:22;1.20;;;1.10;;
1847;SDS011;924;52.448;13.356;2023-04-24T10:49:48;1.80;;;0.90;;
1847;SDS011;924;52.448;13.356;2023-04-24T10:52:15;1.40;;;1.00;;
1847;SDS011;924;52.448;13.356;2023-04-24T10:54:42;1.20;;;1.10;;
1847;SDS011;924;52.448;13.356;2023-04-24T10:59:43;1.60;;;1.50;;
1847;SDS011;924;52.448;13.356;2023-04-24T11:02:09;1.90;;;1.60;;
1847;SDS011;924;52.448;13.356;2023-04-24T11:04:34;1.90;;;1.13;;
1847;SDS011;924;52.448;13.356;2023-04-24T11:07:02;1.73;;;1.30;;
1847;SDS011;924;52.448;13.356;2023-04-24T11:09:29;1.70;;;1.60;;
1847;SDS011;924;52.448;13.356;2023-04-24T11:12:08;1.97;;;1.40;;
1847;SDS011;924;52.448;13.356;2023-04-24T11:20:04;1.60;;;1.50;;
1847;SDS011;924;52.448;13.356;2023-04-24T11:22:33;1.70;;;1.60;;
1847;SDS011;924;52.448;13.356;2023-04-24T11:24:59;1.53;;;1.43;;
1847;SDS011;924;52.448;13.356;2023-04-24T11:27:27;1.80;;;1.70;;
1847;SDS011;924;52.448;13.356;2023-04-24T11:34:52;1.50;;;1.40;;
1847;SDS011;924;52.448;13.356;2023-04-24T11:37:17;1.53;;;1.43;;
1847;SDS011;924;52.448;13.356;2023-04-24T11:39:42;2.10;;;1.90;;
1847;SDS011;924;52.448;13.356;2023-04-24T11:42:08;2.07;;;1.87;;
1847;SDS011;924;52.448;13.356;2023-04-24T11:44:34;1.70;;;1.60;;
1847;SDS011;924;52.448;13.356;2023-04-24T11:46:59;3.57;;;1.70;;
1847;SDS011;924;52.448;13.356;2023-04-24T11:49:25;2.30;;;2.10;;
1847;SDS011;924;52.448;13.356;2023-04-24T11:51:50;1.90;;;1.80;;
1847;SDS011;924;52.448;13.356;2023-04-24T11:54:19;3.63;;;2.07;;
1847;SDS011;924;52.448;13.356;2023-04-24T11:56:46;2.10;;;1.90;;
1847;SDS011;924;52.448;13.356;2023-04-24T11:59:11;2.13;;;1.93;;
1847;SDS011;924;52.448;13.356;2023-04-24T12:01:45;1.50;;;1.40;;
1847;SDS011;924;52.448;13.356;2023-04-24T12:04:11;3.70;;;3.07;;
1847;SDS011;924;52.448;13.356;2023-04-24T12:06:36;2.20;;;2.00;;
1847;SDS011;924;52.448;13.356;2023-04-24T12:09:02;2.43;;;1.87;;
1847;SDS011;924;52.448;13.356;2023-04-24T12:11:27;1.60;;;1.40;;
1847;SDS011;924;52.448;13.356;2023-04-24T12:13:52;2.23;;;2.03;;
1847;SDS011;924;52.448;13.356;2023-04-24T12:16:18;1.60;;;1.50;;
1847;SDS011;924;52.448;13.356;2023-04-24T12:18:44;2.00;;;1.57;;
1847;SDS011;924;52.448;13.356;2023-04-24T12:21:19;1.70;;;1.60;;
1847;SDS011;924;52.448;13.356;2023-04-24T12:23:45;1.97;;;1.43;;
1847;SDS011;924;52.448;13.356;2023-04-24T12:26:10;2.30;;;1.60;;
1847;SDS011;924;52.448;13.356;2023-04-24T12:28:36;3.30;;;1.50;;
1847;SDS011;924;52.448;13.356;2023-04-24T12:31:02;2.20;;;1.30;;
1847;SDS011;924;52.448;13.356;2023-04-24T12:33:27;1.50;;;1.40;;
1847;SDS011;924;52.448;13.356;2023-04-24T12:35:53;2.20;;;1.30;;
1847;SDS011;924;52.448;13.356;2023-04-24T12:38:21;3.60;;;2.20;;
1847;SDS011;924;52.448;13.356;2023-04-24T12:40:47;1.90;;;1.43;;
1847;SDS011;924;52.448;13.356;2023-04-24T12:43:15;1.40;;;1.20;;
1847;SDS011;924;52.448;13.356;2023-04-24T12:45:41;2.10;;;1.50;;
1847;SDS011;924;52.448;13.356;2023-04-24T12:48:06;4.20;;;1.70;;
1847;SDS011;924;52.448;13.356;2023-04-24T12:50:31;2.13;;;1.40;;
1847;SDS011;924;52.448;13.356;2023-04-24T12:52:56;1.30;;;1.17;;
1847;SDS011;924;52.448;13.356;2023-04-24T12:55:22;1.40;;;1.20;;
1847;SDS011;924;52.448;13.356;2023-04-24T12:57:47;1.20;;;1.10;;
1847;SDS011;924;52.448;13.356;2023-04-24T13:00:12;1.67;;;1.20;;
1847;SDS011;924;52.448;13.356;2023-04-24T13:02:38;2.80;;;1.00;;
1847;SDS011;924;52.448;13.356;2023-04-24T13:05:03;1.37;;;1.20;;
1847;SDS011;924;52.448;13.356;2023-04-24T13:07:29;1.77;;;1.47;;
1847;SDS011;924;52.448;13.356;2023-04-24T13:09:54;2.43;;;1.10;;
1847;SDS011;924;52.448;13.356;2023-04-24T13:12:20;1.20;;;1.00;;
1847;SDS011;924;52.448;13.356;2023-04-24T13:14:45;2.00;;;1.20;;
1847;SDS011;924;52.448;13.356;2023-04-24T13:17:10;4.07;;;1.10;;
1847;SDS011;924;52.448;13.356;2023-04-24T13:19:37;1.50;;;1.40;;
1847;SDS011;924;52.448;13.356;2023-04-24T13:22:03;1.10;;;1.00;;
1847;SDS011;924;52.448;13.356;2023-04-24T13:24:28;1.33;;;1.07;;
1847;SDS011;924;52.448;13.356;2023-04-24T13:26:54;0.90;;;0.83;;
1847;SDS011;924;52.448;13.356;2023-04-24T13:29:21;1.20;;;1.10;;
1847;SDS011;924;52.448;13.356;2023-04-24T13:31:46;4.33;;;1.00;;
1847;SDS011;924;52.448;13.356;2023-04-24T13:34:12;2.17;;;1.20;;
1847;SDS011;924;52.448;13.356;2023-04-24T13:36:38;1.33;;;1.23;;
1847;SDS011;924;52.448;13.356;2023-04-24T13:39:03;1.73;;;0.97;;
1847;SDS011;924;52.448;13.356;2023-04-24T13:41:30;1.57;;;1.00;;
1847;SDS011;924;52.448;13.356;2023-04-24T13:43:55;3.63;;;1.37;;
1847;SDS011;924;52.448;13.356;2023-04-24T13:46:20;1.10;;;1.00;;
1847;SDS011;924;52.448;13.356;2023-04-24T13:48:46;2.40;;;1.40;;
1847;SDS011;924;52.448;13.356;2023-04-24T13:51:11;1.40;;;1.23;;
1847;SDS011;924;52.448;13.356;2023-04-24T13:53:36;4.03;;;1.20;;
1847;SDS011;924;52.448;13.356;2023-04-24T13:56:03;1.47;;;1.17;;
1847;SDS011;924;52.448;13.356;2023-04-24T13:58:28;1.77;;;1.20;;
1847;SDS011;924;52.448;13.356;2023-04-24T14:00:53;2.20;;;1.10;;
1847;SDS011;924;52.448;13.356;2023-04-24T14:03:19;2.33;;;0.90;;
1847;SDS011;924;52.448;13.356;2023-04-24T14:05:44;2.30;;;1.30;;
1847;SDS011;924;52.448;13.356;2023-04-24T14:08:09;2.50;;;1.20;;
1847;SDS011;924;52.448;13.356;2023-04-24T14:10:34;1.90;;;1.20;;
1847;SDS011;924;52.448;13.356;2023-04-24T14:13:00;1.87;;;1.40;;
1847;SDS011;924;52.448;13.356;2023-04-24T14:15:25;3.20;;;1.33;;
1847;SDS011;924;52.448;13.356;2023-04-24T14:17:50;1.43;;;1.20;;
1847;SDS011;924;52.448;13.356;2023-04-24T14:20:15;1.90;;;1.20;;
1847;SDS011;924;52.448;13.356;2023-04-24T14:22:41;1.43;;;1.33;;
1847;SDS011;924;52.448;13.356;2023-04-24T14:25:07;1.70;;;1.60;;
1847;SDS011;924;52.448;13.356;2023-04-24T14:27:32;1.20;;;1.10;;
1847;SDS011;924;52.448;13.356;2023-04-24T14:29:59;1.80;;;1.10;;
1847;SDS011;924;52.448;13.356;2023-04-24T14:32:24;1.67;;;0.90;;
1847;SDS011;924;52.448;13.356;2023-04-24T14:34:49;1.60;;;1.30;;
1847;SDS011;924;52.448;13.356;2023-04-24T14:37:15;4.07;;;1.40;;
1847;SDS011;924;52.448;13.356;2023-04-24T14:39:40;1.53;;;1.43;;
1847;SDS011;924;52.448;13.356;2023-04-24T14:42:05;1.70;;;1.40;;
1847;SDS011;924;52.448;13.356;2023-04-24T14:44:30;1.93;;;1.23;;
1847;SDS011;924;52.448;13.356;2023-04-24T14:46:56;2.10;;;1.50;;
1847;SDS011;924;52.448;13.356;2023-04-24T14:49:22;2.77;;;2.17;;
1847;SDS011;924;52.448;13.356;2023-04-24T14:51:48;3.37;;;1.70;;
1847;SDS011;924;52.448;13.356;2023-04-24T14:54:13;1.97;;;1.60;;
1847;SDS011;924;52.448;13.356;2023-04-24T14:56:38;1.90;;;1.77;;
1847;SDS011;924;52.448;13.356;2023-04-24T14:59:05;3.33;;;2.93;;
1847;SDS011;924;52.448;13.356;2023-04-24T15:01:31;1.80;;;1.70;;
1847;SDS011;924;52.448;13.356;2023-04-24T15:03:57;1.50;;;1.40;;
1847;SDS011;924;52.448;13.356;2023-04-24T15:06:22;1.90;;;1.60;;
1847;SDS011;924;52.448;13.356;2023-04-24T15:08:48;2.63;;;1.80;;
1847;SDS011;924;52.448;13.356;2023-04-24T15:11:13;1.53;;;1.43;;
1847;SDS011;924;52.448;13.356;2023-04-24T15:13:38;3.30;;;1.40;;
1847;SDS011;924;52.448;13.356;2023-04-24T15:16:04;2.90;;;1.60;;
1847;SDS011;924;52.448;13.356;2023-04-24T15:18:29;2.70;;;1.87;;